createdAt,value
2022-10-15T00:00:05.359Z,69.53
2022-10-15T00:02:31.963Z,69.14
2022-10-15T00:05:01.928Z,69.28
2022-10-15T00:07:29.090Z,69.33
2022-10-15T00:09:55.764Z,69.39
2022-10-15T00:12:23.895Z,69.29
2022-10-15T00:14:50.729Z,68.95
2022-10-15T00:17:42.396Z,69.18
2022-10-15T00:20:10.903Z,69.06
2022-10-15T00:22:37.899Z,69.19
2022-10-15T00:25:05.516Z,69.20
2022-10-15T00:27:42.237Z,69.02
2022-10-15T00:30:09.469Z,63.55
2022-10-15T00:32:36.139Z,69.06
2022-10-15T00:35:09.081Z,69.00
2022-10-15T00:37:35.736Z,68.93
2022-10-15T00:42:33.979Z,69.08
2022-10-15T00:45:02.908Z,68.91
2022-10-15T00:47:44.903Z,68.95
2022-10-15T00:50:23.959Z,69.16
2022-10-15T00:53:12.034Z,69.54
2022-10-15T00:55:47.049Z,69.57
2022-10-15T00:58:38.007Z,69.70
2022-10-15T01:01:07.826Z,69.11
2022-10-15T01:03:36.229Z,69.04
2022-10-15T01:06:03.669Z,69.27
2022-10-15T01:08:39.962Z,69.36
2022-10-15T01:11:19.150Z,69.26
2022-10-15T01:14:11.877Z,68.75
2022-10-15T01:16:53.397Z,68.46
2022-10-15T01:19:38.192Z,68.37
2022-10-15T01:22:11.473Z,68.07
2022-10-15T01:25:20.585Z,68.00
2022-10-15T01:28:05.585Z,67.94
2022-10-15T01:30:58.502Z,68.31
2022-10-15T01:33:43.879Z,68.20
2022-10-15T01:36:31.709Z,68.40
2022-10-15T01:39:24.589Z,68.60
2022-10-15T01:42:01.536Z,68.65
2022-10-15T01:44:32.431Z,68.34
2022-10-15T01:47:20.184Z,68.21
2022-10-15T01:49:47.863Z,67.93
2022-10-15T01:52:22.306Z,67.73
2022-10-15T01:54:50.463Z,67.54
2022-10-15T01:57:18.533Z,67.92
2022-10-15T01:59:51.307Z,67.61
2022-10-15T02:02:22.706Z,66.26
2022-10-15T02:04:49.568Z,65.33
2022-10-15T02:07:33.802Z,64.71
2022-10-15T02:10:08.262Z,64.42
2022-10-15T02:12:43.787Z,64.73
2022-10-15T02:15:19.547Z,64.60
2022-10-15T02:17:58.363Z,64.31
2022-10-15T02:20:35.209Z,64.55
2022-10-15T02:23:17.917Z,64.05
2022-10-15T02:25:47.665Z,64.11
2022-10-15T02:28:18.294Z,64.40
2022-10-15T02:30:48.486Z,64.19
2022-10-15T02:33:20.412Z,63.64
2022-10-15T02:35:48.723Z,63.76
2022-10-15T02:38:21.278Z,63.53
2022-10-15T02:40:54.440Z,62.22
2022-10-15T02:43:22.228Z,60.34
2022-10-15T02:45:50.505Z,59.30
2022-10-15T02:48:25.791Z,57.87
2022-10-15T02:50:52.517Z,56.82
2022-10-15T02:53:19.184Z,56.16
2022-10-15T02:55:48.531Z,55.32
2022-10-15T02:58:15.340Z,54.76
2022-10-15T03:00:44.552Z,54.03
2022-10-15T03:03:12.630Z,53.74
2022-10-15T03:05:46.557Z,54.20
2022-10-15T03:08:18.763Z,54.03
2022-10-15T03:10:46.675Z,53.03
2022-10-15T03:13:13.673Z,53.04
2022-10-15T03:15:47.292Z,52.57
2022-10-15T03:18:15.411Z,52.54
2022-10-15T03:20:46.774Z,53.14
2022-10-15T03:23:16.485Z,53.61
2022-10-15T03:25:44.609Z,52.98
2022-10-15T03:28:22.225Z,52.99
2022-10-15T03:30:49.617Z,52.71
2022-10-15T03:33:19.000Z,53.09
2022-10-15T03:35:47.936Z,52.70
2022-10-15T03:38:39.535Z,53.03
2022-10-15T03:41:10.506Z,52.82
2022-10-15T03:43:48.229Z,53.34
2022-10-15T03:46:16.496Z,53.81
2022-10-15T03:48:49.628Z,52.38
2022-10-15T03:51:20.475Z,53.00
2022-10-15T03:54:30.200Z,52.56
2022-10-15T03:56:57.854Z,52.01
2022-10-15T03:59:32.076Z,52.29
2022-10-15T04:02:01.493Z,52.16
2022-10-15T04:04:29.053Z,53.03
2022-10-15T04:06:56.293Z,54.19
2022-10-15T04:09:23.667Z,53.73
2022-10-15T04:11:50.376Z,54.04
2022-10-15T04:14:19.443Z,54.18
2022-10-15T04:16:46.126Z,53.88
2022-10-15T04:19:18.063Z,53.98
2022-10-15T04:21:58.167Z,54.08
2022-10-15T04:24:32.474Z,53.01
2022-10-15T04:27:01.574Z,53.19
2022-10-15T04:29:30.959Z,53.68
2022-10-15T04:32:22.583Z,53.80
2022-10-15T04:35:00.801Z,53.74
2022-10-15T04:37:46.626Z,53.00
2022-10-15T04:40:14.836Z,53.46
2022-10-15T04:42:42.134Z,52.90
2022-10-15T04:45:10.465Z,52.97
2022-10-15T04:47:39.995Z,52.37
2022-10-15T04:50:14.946Z,51.60
2022-10-15T04:53:01.879Z,51.75
2022-10-15T04:55:32.655Z,51.33
2022-10-15T04:58:01.052Z,50.54
2022-10-15T05:00:29.801Z,49.68
2022-10-15T05:03:15.143Z,50.84
2022-10-15T05:05:53.673Z,51.60
2022-10-15T05:08:20.766Z,50.67
2022-10-15T05:11:18.666Z,51.72
2022-10-15T05:13:45.624Z,52.05
2022-10-15T05:16:17.132Z,52.36
2022-10-15T05:18:48.903Z,52.07
2022-10-15T05:21:16.382Z,52.10
2022-10-15T05:23:47.978Z,52.40
2022-10-15T05:26:34.660Z,51.88
2022-10-15T05:29:03.797Z,52.06
2022-10-15T05:31:35.920Z,52.27
2022-10-15T05:34:13.160Z,52.22
2022-10-15T05:37:00.002Z,52.15
2022-10-15T05:39:44.221Z,52.57
2022-10-15T05:42:41.133Z,52.74
2022-10-15T05:45:08.492Z,52.52
2022-10-15T05:47:35.185Z,50.17
2022-10-15T05:50:14.790Z,54.53
2022-10-15T05:52:45.278Z,53.86
2022-10-15T05:55:32.355Z,53.23
2022-10-15T05:58:03.262Z,51.95
2022-10-15T06:00:29.934Z,52.92
2022-10-15T06:02:56.527Z,53.98
2022-10-15T06:05:24.442Z,52.15
2022-10-15T06:07:58.349Z,53.08
2022-10-15T06:10:25.545Z,53.60
2022-10-15T06:12:52.453Z,54.00
2022-10-15T06:15:28.394Z,54.05
2022-10-15T06:17:54.959Z,54.77
2022-10-15T06:20:21.579Z,54.68
2022-10-15T06:23:02.318Z,54.28
2022-10-15T06:25:32.614Z,54.90
2022-10-15T06:28:03.447Z,54.59
2022-10-15T06:30:41.680Z,55.06
2022-10-15T06:33:16.128Z,52.87
2022-10-15T06:35:46.724Z,50.88
2022-10-15T06:38:13.414Z,50.76
2022-10-15T06:40:48.754Z,50.67
2022-10-15T06:49:19.916Z,47.15
2022-10-15T06:59:10.670Z,47.16
2022-10-15T07:01:39.928Z,46.60
2022-10-15T07:04:08.864Z,46.37
2022-10-15T07:06:35.775Z,45.80
2022-10-15T07:09:03.159Z,46.95
2022-10-15T07:11:29.831Z,46.02
2022-10-15T07:13:59.666Z,46.34
2022-10-15T07:16:26.606Z,46.79
2022-10-15T07:19:05.136Z,47.40
2022-10-15T07:21:32.112Z,48.17
2022-10-15T07:26:42.345Z,60.71
2022-10-15T07:29:16.670Z,59.29
2022-10-15T07:34:13.108Z,59.70
2022-10-15T07:37:06.215Z,58.66
2022-10-15T07:39:39.118Z,59.79
2022-10-15T07:42:16.559Z,59.32
2022-10-15T07:44:43.235Z,59.38
2022-10-15T07:47:12.261Z,59.85
2022-10-15T07:49:51.585Z,59.85
2022-10-15T07:52:31.284Z,59.90
2022-10-15T07:54:58.167Z,60.48
2022-10-15T07:57:24.885Z,60.57
2022-10-15T08:00:15.440Z,60.46
2022-10-15T08:02:45.595Z,60.87
2022-10-15T08:05:14.785Z,60.89
2022-10-15T08:07:50.748Z,61.08
2022-10-15T08:10:19.655Z,61.90
2022-10-15T08:12:46.306Z,62.67
2022-10-15T08:15:13.045Z,62.94
2022-10-15T08:17:42.916Z,63.60
2022-10-15T08:20:10.476Z,63.63
2022-10-15T08:22:37.349Z,63.88
2022-10-15T08:25:04.501Z,64.33
2022-10-15T08:27:31.375Z,64.95
2022-10-15T08:30:04.585Z,65.45
2022-10-15T08:32:31.254Z,65.73
2022-10-15T08:34:57.883Z,65.89
2022-10-15T08:37:24.813Z,66.17
2022-10-15T08:39:51.515Z,66.43
2022-10-15T08:42:30.692Z,67.31
2022-10-15T08:45:08.897Z,67.67
2022-10-15T08:48:18.428Z,67.83
2022-10-15T08:51:00.107Z,68.07
2022-10-15T08:53:28.358Z,68.32
2022-10-15T08:56:02.769Z,68.13
2022-10-15T08:58:51.893Z,68.13
2022-10-15T09:01:38.624Z,68.37
2022-10-15T09:04:17.358Z,68.87
2022-10-15T09:06:44.655Z,69.16
2022-10-15T09:09:27.539Z,69.56
2022-10-15T09:12:25.959Z,70.30
2022-10-15T09:14:57.013Z,71.18
2022-10-15T09:17:25.969Z,72.03
2022-10-15T09:19:57.517Z,72.84
2022-10-15T09:22:30.193Z,73.66
2022-10-15T09:24:57.089Z,74.28
2022-10-15T09:27:35.008Z,74.81
2022-10-15T09:30:13.536Z,75.04
2022-10-15T09:32:51.970Z,75.45
2022-10-15T09:35:25.654Z,75.66
2022-10-15T09:38:01.118Z,75.93
2022-10-15T09:40:48.883Z,75.93
2022-10-15T09:43:20.790Z,76.23
2022-10-15T09:45:47.420Z,76.33
2022-10-15T09:48:18.813Z,76.53
2022-10-15T09:50:58.664Z,76.91
2022-10-15T09:53:28.364Z,77.20
2022-10-15T09:56:08.043Z,77.45
2022-10-15T09:58:40.473Z,77.50
2022-10-15T10:01:08.278Z,77.44
2022-10-15T10:03:38.995Z,77.51
2022-10-15T10:06:11.250Z,77.71
2022-10-15T10:08:51.949Z,77.74
2022-10-15T10:11:20.421Z,77.84
2022-10-15T10:13:57.110Z,77.75
2022-10-15T10:16:24.028Z,78.03
2022-10-15T10:19:05.876Z,78.06
2022-10-15T10:21:34.769Z,78.23
2022-10-15T10:24:30.714Z,78.55
2022-10-15T10:26:58.684Z,78.62
2022-10-15T10:29:33.983Z,78.69
2022-10-15T10:32:11.131Z,78.42
2022-10-15T10:34:37.804Z,78.26
2022-10-15T10:37:06.621Z,78.26
2022-10-15T10:39:34.910Z,78.42
2022-10-15T10:42:01.541Z,78.31
2022-10-15T10:44:28.084Z,78.39
2022-10-15T10:47:23.194Z,78.92
2022-10-15T10:50:08.573Z,79.50
2022-10-15T10:52:37.377Z,80.27
2022-10-15T10:55:20.074Z,80.67
2022-10-15T10:57:58.353Z,81.39
2022-10-15T11:00:44.234Z,82.00
2022-10-15T11:03:23.067Z,83.34
2022-10-15T11:06:12.198Z,84.98
2022-10-15T11:08:44.399Z,86.68
2022-10-15T11:11:32.942Z,88.52
2022-10-15T11:14:27.285Z,90.43
2022-10-15T11:17:05.427Z,92.41
2022-10-15T11:20:05.659Z,93.74
2022-10-15T11:22:55.584Z,95.85
2022-10-15T11:25:38.779Z,98.23
2022-10-15T11:28:20.196Z,100.00
2022-10-15T11:30:59.754Z,100.00
2022-10-15T11:33:47.867Z,100.00
2022-10-15T11:36:54.845Z,100.00
2022-10-15T11:39:49.147Z,100.00
2022-10-15T11:42:29.147Z,100.00
2022-10-15T11:45:33.429Z,100.00
2022-10-15T11:48:27.163Z,100.00
2022-10-15T11:52:04.076Z,100.00
2022-10-15T11:54:43.496Z,100.00
2022-10-15T11:57:21.599Z,100.00
2022-10-15T12:00:11.847Z,100.00
2022-10-15T12:02:42.692Z,100.00
2022-10-15T12:05:30.015Z,100.00
2022-10-15T12:08:01.267Z,100.00
2022-10-15T12:10:37.085Z,100.00
2022-10-15T12:13:23.092Z,100.00
2022-10-15T12:15:52.602Z,100.00
2022-10-15T12:18:48.603Z,100.00
2022-10-15T12:21:36.634Z,100.00
2022-10-15T12:24:07.082Z,100.00
2022-10-15T12:26:34.736Z,100.00
2022-10-15T12:29:16.678Z,100.00
2022-10-15T12:31:46.163Z,100.00
2022-10-15T12:34:28.553Z,100.00
2022-10-15T12:37:17.500Z,100.00
2022-10-15T12:39:52.442Z,100.00
2022-10-15T12:42:27.323Z,100.00
2022-10-15T12:44:57.518Z,100.00
2022-10-15T12:47:56.421Z,100.00
2022-10-15T12:50:25.855Z,100.00
2022-10-15T12:52:54.298Z,100.00
2022-10-15T12:55:28.405Z,100.00
2022-10-15T12:58:14.648Z,100.00
2022-10-15T13:00:43.971Z,100.00
2022-10-15T13:03:13.553Z,100.00
2022-10-15T13:05:40.220Z,100.00
2022-10-15T13:08:13.909Z,100.00
2022-10-15T13:10:54.917Z,100.00
2022-10-15T13:13:24.999Z,100.00
2022-10-15T13:16:02.376Z,100.00
2022-10-15T13:18:30.858Z,100.00
2022-10-15T13:20:57.916Z,100.00
2022-10-15T13:23:33.252Z,100.00
2022-10-15T13:26:12.168Z,100.00
2022-10-15T13:28:42.123Z,100.00
2022-10-15T13:31:24.737Z,100.00
2022-10-15T13:33:56.501Z,100.00
2022-10-15T13:36:24.933Z,100.00
2022-10-15T13:38:56.886Z,100.00
2022-10-15T13:41:43.867Z,100.00
2022-10-15T13:44:24.166Z,100.00
2022-10-15T13:46:51.308Z,100.00
2022-10-15T13:49:18.536Z,100.00
2022-10-15T13:51:47.672Z,100.00
2022-10-15T13:54:24.281Z,100.00
2022-10-15T13:56:59.475Z,100.00
2022-10-15T13:59:28.778Z,100.00
2022-10-15T14:02:04.505Z,100.00
2022-10-15T14:04:33.016Z,100.00
2022-10-15T14:07:05.481Z,100.00
2022-10-15T14:09:34.190Z,100.00
2022-10-15T14:12:03.041Z,100.00
2022-10-15T14:14:41.814Z,100.00
2022-10-15T14:17:20.785Z,100.00
2022-10-15T14:20:14.403Z,100.00
2022-10-15T14:22:39.897Z,100.00
2022-10-15T14:25:10.635Z,100.00
2022-10-15T14:27:37.238Z,96.71
2022-10-15T14:30:22.406Z,92.65
2022-10-15T14:32:52.761Z,90.41
2022-10-15T14:35:36.412Z,89.72
2022-10-15T14:38:25.134Z,88.08
2022-10-15T14:41:25.992Z,86.71
2022-10-15T14:44:01.886Z,85.71
2022-10-15T14:46:36.961Z,84.83
2022-10-15T14:49:03.698Z,84.03
2022-10-15T14:51:30.411Z,83.50
2022-10-15T14:53:57.037Z,82.97
2022-10-15T14:56:26.097Z,82.26
2022-10-15T14:58:56.613Z,81.73
2022-10-15T15:01:23.731Z,81.25
2022-10-15T15:03:53.436Z,80.88
2022-10-15T15:06:23.214Z,80.59
2022-10-15T15:08:50.062Z,80.23
2022-10-15T15:11:22.686Z,79.99
2022-10-15T15:13:55.542Z,79.71
2022-10-15T15:16:25.102Z,79.58
2022-10-15T15:18:53.015Z,79.30
2022-10-15T15:21:24.841Z,79.19
2022-10-15T15:23:51.621Z,78.99
2022-10-15T15:26:18.406Z,78.84
2022-10-15T15:28:45.123Z,78.62
2022-10-15T15:31:17.285Z,78.40
2022-10-15T15:33:43.999Z,78.16
2022-10-15T15:36:17.588Z,77.91
2022-10-15T15:38:47.442Z,77.68
2022-10-15T15:41:19.000Z,77.41
2022-10-15T15:43:46.063Z,77.06
2022-10-15T15:46:13.142Z,76.69
2022-10-15T15:48:39.808Z,76.49
2022-10-15T15:51:20.330Z,76.21
2022-10-15T15:53:47.057Z,76.03
2022-10-15T15:56:16.744Z,75.80
2022-10-15T15:58:43.434Z,75.64
2022-10-15T16:01:10.089Z,75.45
2022-10-15T16:03:36.746Z,75.32
2022-10-15T16:06:07.315Z,75.08
2022-10-15T16:08:35.423Z,75.00
2022-10-15T16:11:02.975Z,74.71
2022-10-15T16:13:30.024Z,74.49
2022-10-15T16:16:07.246Z,74.17
2022-10-15T16:18:33.952Z,74.04
2022-10-15T16:21:00.590Z,74.13
2022-10-15T16:23:27.188Z,73.93
2022-10-15T16:25:54.953Z,73.84
2022-10-15T16:28:24.711Z,73.76
2022-10-15T16:30:51.430Z,73.66
2022-10-15T16:33:18.099Z,73.49
2022-10-15T16:35:44.871Z,73.29
2022-10-15T16:38:11.514Z,73.30
2022-10-15T16:41:03.515Z,73.19
2022-10-15T16:43:30.155Z,73.31
2022-10-15T16:45:57.835Z,73.21
2022-10-15T16:48:26.426Z,73.10
2022-10-15T16:51:11.211Z,73.10
2022-10-15T16:53:43.431Z,72.92
2022-10-15T16:56:24.281Z,72.97
2022-10-15T16:58:51.059Z,72.90
2022-10-15T17:01:21.121Z,72.96
2022-10-15T17:03:52.333Z,73.22
2022-10-15T17:06:24.560Z,73.67
2022-10-15T17:08:54.782Z,73.57
2022-10-15T17:11:41.076Z,73.54
2022-10-15T17:14:15.680Z,73.64
2022-10-15T17:16:43.614Z,73.52
2022-10-15T17:19:11.935Z,73.74
2022-10-15T17:21:46.908Z,73.66
2022-10-15T17:24:15.644Z,73.68
2022-10-15T17:26:43.379Z,73.60
2022-10-15T17:29:20.641Z,73.45
2022-10-15T17:31:58.736Z,73.33
2022-10-15T17:34:27.864Z,73.42
2022-10-15T17:36:56.196Z,73.62
2022-10-15T17:39:26.958Z,73.47
2022-10-15T17:41:53.805Z,73.48
2022-10-15T17:44:23.525Z,73.49
2022-10-15T17:47:04.095Z,73.48
2022-10-15T17:49:30.778Z,73.59
2022-10-15T17:51:59.671Z,73.55
2022-10-15T17:54:29.008Z,73.47
2022-10-15T17:56:55.732Z,73.83
2022-10-15T17:59:22.365Z,73.71
2022-10-15T18:02:04.464Z,73.79
2022-10-15T18:04:44.554Z,73.50
2022-10-15T18:07:11.655Z,73.34
2022-10-15T18:09:41.429Z,73.58
2022-10-15T18:12:22.729Z,73.36
2022-10-15T18:15:03.671Z,73.34
2022-10-15T18:17:53.185Z,73.32
2022-10-15T18:20:18.025Z,73.25
2022-10-15T18:22:58.487Z,73.18
2022-10-15T18:25:25.929Z,73.15
2022-10-15T18:28:01.731Z,73.24
2022-10-15T18:30:30.026Z,73.05
2022-10-15T18:32:58.258Z,72.77
2022-10-15T18:35:35.422Z,72.82
2022-10-15T18:38:28.655Z,72.75
2022-10-15T18:41:21.521Z,72.77
2022-10-15T18:44:00.086Z,72.55
2022-10-15T18:46:34.024Z,72.38
2022-10-15T18:49:08.525Z,72.15
2022-10-15T18:51:37.805Z,72.13
2022-10-15T18:54:04.713Z,72.17
2022-10-15T18:56:38.884Z,71.27
2022-10-15T18:59:05.563Z,71.86
2022-10-15T19:01:45.469Z,72.12
2022-10-15T19:04:19.836Z,72.29
2022-10-15T19:06:57.747Z,72.37
2022-10-15T19:09:26.309Z,72.49
2022-10-15T19:11:59.034Z,72.10
2022-10-15T19:14:31.833Z,72.00
2022-10-15T19:16:58.610Z,71.86
2022-10-15T19:19:31.719Z,71.56
2022-10-15T19:21:59.160Z,71.82
2022-10-15T19:24:30.661Z,72.31
2022-10-15T19:26:57.606Z,72.15
2022-10-15T19:29:35.205Z,72.08
2022-10-15T19:32:28.338Z,72.07
2022-10-15T19:34:58.526Z,72.13
2022-10-15T19:37:27.565Z,72.05
2022-10-15T19:40:03.799Z,72.02
2022-10-15T19:42:30.523Z,72.21
2022-10-15T19:44:59.672Z,72.48
2022-10-15T19:47:30.024Z,72.44
2022-10-15T19:50:01.704Z,72.49
2022-10-15T19:52:28.605Z,72.44
2022-10-15T19:54:55.276Z,72.56
2022-10-15T19:57:42.353Z,72.59
2022-10-15T20:00:16.875Z,72.82
2022-10-15T20:02:43.598Z,73.00
2022-10-15T20:05:10.275Z,72.82
2022-10-15T20:07:44.202Z,72.98
2022-10-15T20:10:12.133Z,73.04
2022-10-15T20:12:39.028Z,73.17
2022-10-15T20:15:06.467Z,73.42
2022-10-15T20:17:35.498Z,73.46
2022-10-15T20:20:05.738Z,73.62
2022-10-15T20:22:32.346Z,73.88
2022-10-15T20:24:58.997Z,73.96
2022-10-15T20:27:32.843Z,74.05
2022-10-15T20:29:59.588Z,74.27
2022-10-15T20:32:41.515Z,74.52
2022-10-15T20:35:09.029Z,74.90
2022-10-15T20:37:35.613Z,75.16
2022-10-15T20:40:02.220Z,75.09
2022-10-15T20:42:39.145Z,75.16
2022-10-15T20:45:07.907Z,75.03
2022-10-15T20:47:35.659Z,74.97
2022-10-15T20:50:13.833Z,74.99
2022-10-15T20:52:43.518Z,75.01
2022-10-15T20:55:13.191Z,74.96
2022-10-15T20:57:39.996Z,74.73
2022-10-15T21:00:08.225Z,74.76
2022-10-15T21:02:35.597Z,74.57
2022-10-15T21:05:07.058Z,74.49
2022-10-15T21:07:34.123Z,74.27
2022-10-15T21:10:01.021Z,74.26
2022-10-15T21:12:27.950Z,74.00
2022-10-15T21:14:54.836Z,73.91
2022-10-15T21:17:31.531Z,73.70
2022-10-15T21:19:58.184Z,73.63
2022-10-15T21:22:27.557Z,73.58
2022-10-15T21:24:54.183Z,73.69
2022-10-15T21:27:21.344Z,73.62
2022-10-15T21:29:55.000Z,73.65
2022-10-15T21:32:35.241Z,73.37
2022-10-15T21:35:04.873Z,73.29
2022-10-15T21:37:36.063Z,73.12
2022-10-15T21:40:04.056Z,73.10
2022-10-15T21:42:30.844Z,72.96
2022-10-15T21:44:58.281Z,72.76
2022-10-15T21:47:33.299Z,72.58
2022-10-15T21:49:59.903Z,72.41
2022-10-15T21:52:26.467Z,72.04
2022-10-15T21:55:02.816Z,71.94
2022-10-15T21:57:29.411Z,71.61
2022-10-15T21:59:59.839Z,71.37
2022-10-15T22:02:33.670Z,71.09
2022-10-15T22:05:00.417Z,71.00
2022-10-15T22:07:27.394Z,70.83
2022-10-15T22:10:06.046Z,70.63
2022-10-15T22:12:32.686Z,70.33
2022-10-15T22:14:59.465Z,70.06
2022-10-15T22:17:32.656Z,70.01
2022-10-15T22:19:59.219Z,70.07
2022-10-15T22:22:26.218Z,70.01
2022-10-15T22:25:05.546Z,70.01
2022-10-15T22:27:33.260Z,69.98
2022-10-15T22:29:59.925Z,70.09
2022-10-15T22:32:37.966Z,70.14
2022-10-15T22:35:04.801Z,70.21
2022-10-15T22:37:31.527Z,70.22
2022-10-15T22:39:59.187Z,70.41
2022-10-15T22:42:28.383Z,70.21
2022-10-15T22:44:55.158Z,70.15
2022-10-15T22:47:27.839Z,70.14
2022-10-15T22:49:54.654Z,69.92
2022-10-15T22:52:24.849Z,69.91
2022-10-15T22:54:58.986Z,69.52
2022-10-15T22:57:25.723Z,69.33
2022-10-15T22:59:58.578Z,69.20
2022-10-15T23:02:28.568Z,69.32
2022-10-15T23:04:55.364Z,68.89
2022-10-15T23:07:24.712Z,68.78
2022-10-15T23:09:51.424Z,68.57
2022-10-15T23:12:18.031Z,68.44
2022-10-15T23:14:44.729Z,68.19
2022-10-15T23:17:11.403Z,68.32
2022-10-15T23:19:42.616Z,68.30
2022-10-15T23:22:10.891Z,68.15
2022-10-15T23:24:37.552Z,68.18
2022-10-15T23:27:04.141Z,67.98
2022-10-15T23:29:30.804Z,67.92
2022-10-15T23:31:57.520Z,67.87
2022-10-15T23:34:28.461Z,67.74
2022-10-15T23:36:55.050Z,67.51
2022-10-15T23:39:25.019Z,67.42
2022-10-15T23:41:51.776Z,67.26
2022-10-15T23:44:21.539Z,67.20
2022-10-15T23:46:48.235Z,67.08
2022-10-15T23:49:15.037Z,66.82
2022-10-15T23:51:41.734Z,66.89
2022-10-15T23:54:17.828Z,67.31
2022-10-15T23:56:45.810Z,66.89
2022-10-15T23:59:12.485Z,66.56
